aviador You're here:

KGGI Decoded Metar

GRINNELL REG in IA, USA
Report Time2017-08-18 00:55:00
UTC Time2017-08-18 01:07:59
Flight Rules vfr VFR
Wind280° at 04 kt
W.Decomp.*RWY 31: 3.4 kt HW 2.1 kt LCW
W.Rank280° ranks 8
Current wind is below 280° avg. (9.2)
Visibility9999 m
Phenomena:N/A
Clouds:N/A
Expected CloudBase > 1,200 ft AGL from Temp-Dew spread
CeilingNone
Temp21°C (ISA +8)
Dew Point18°C (83% RH)
QNH1012 hPa
Density Alt2,251 ft
Elevation1,007 ft
Report Wrong Elevation
Raw Report
KGGI 180055Z AUTO 28004KT 10SM CLR 21/18 A2987 RMK AO2
T02130176=

Extra information for KGGI:More info

Metar Taf Metar & Taf Last 4 Metars F.Rules Stats Wind Profile Meteogram Temp Stats Airport Information Weather charts Add Link Nearby VenuesMetar ALERT Operation Metar Decoded Social comments

AIRNAV info for KGGI